CheckWX is a tool to help pilots better visualize weather data.  It is not intended as a substitute for an official pre-flight weather briefing.

06:50:01 UTC

KAJZ METAR
Blake Field Airport
Delta, Colorado, USA
Current

15 mins ago

KAJZ 190635Z AUTO 02003KT 10SM OVC009 M02/M03 A2985 RMK AO2 T10201032
Observed
Feb-19 @ 06:35 UTC
Wind
  • 020° at 3 KTS
Visibility
10 SM
Flight Rules
IFR
Cloud Levels
  • Overcast at 900' AGL
Temperature
-2°C / 28°F
Dewpoint
-3°C / 27°F
Humidity
93%
Altimeter
29.85" Hg
Pressure
1010.82 hPa
Previous

35 mins ago

KAJZ 190615Z AUTO 01004KT 10SM BKN009 BKN046 M02/M03 A2985 RMK AO2 T10221032
Observed
Feb-19 @ 06:15 UTC
Wind
  • 010° at 4 KTS
Visibility
10 SM
Flight Rules
IFR
Cloud Levels
  • Broken at 900' AGL
  • Broken at 4,600' AGL
Temperature
-2°C / 28°F
Dewpoint
-3°C / 27°F
Humidity
93%
Altimeter
29.85" Hg
Pressure
1010.82 hPa
Previous

55 mins ago

KAJZ 190555Z AUTO 02003KT 10SM SCT009 SCT042 M03/M04 A2985 RMK AO2 T10271038 11006 21030 400211041
Observed
Feb-19 @ 05:55 UTC
Wind
  • 020° at 3 KTS
Visibility
10 SM
Flight Rules
VFR
Cloud Levels
  • Scattered at 900' AGL
  • Scattered at 4,200' AGL
Temperature
-3°C / 27°F
Dewpoint
-4°C / 25°F
Humidity
93%
Altimeter
29.85" Hg
Pressure
1010.82 hPa